Terminal Aerodrome Forecast
Issued by NWS

Home | Current Version | Previous Version | Text Only | Print | Product List | Glossary Off
Versions: 1 2 3 4 5 6 7 8 9 10 11 12 13 14 15 16 17 18 19 20 21 22 23 24 25 26 27 28 29 30 31 32 33 34 35 36 37 38 39 40 41 42 43 44 45 46 47 48

000
FTUS43 KGRB 180023 AAA
TAFATW
TAF AMD
KATW 180023Z 1800/1824 34006KT 1SM BR OVC002
      TEMPO 1800/1801 1/2SM FG OVC003
     FM180100 32005KT 2SM BR OVC004
     FM180300 27004KT 5SM BR SCT007 BKN012
     FM180600 26005KT 3SM BR SCT015 OVC025
     FM181100 23008KT 2SM BR OVC003
     FM181800 22010KT P6SM SCT010=

USA.gov is the U.S. government's official web portal to all federal, state and local government web resources and services.